Time;durP1;ratioP1;P1;durP2;ratioP2;P2;SDS_P1;SDS_P2;PMS_P1;PMS_P2;Temp;Humidity;BMP_temperature;BMP_pressure;BME280_temperature;BME280_humidity;BME280_pressure;Samples;Min_cycle;Max_cycle;Signal;HPM_P1;HPM_P2
2022/11/11 00:01:10;;;;;;;5.78;2.35;;;;;;;12.09;60.98;100919.06;5091659;28;20052;-61
2022/11/11 00:03:36;;;;;;;6.40;2.67;;;;;;;12.12;60.05;100924.19;5091584;28;20146;-60
2022/11/11 00:06:05;;;;;;;8.77;2.63;;;;;;;12.10;60.14;100912.84;5073733;28;20048;-59
2022/11/11 00:08:32;;;;;;;7.00;2.20;;;;;;;12.10;60.15;100909.34;5091478;28;20075;-59
2022/11/11 00:11:03;;;;;;;8.18;2.67;;;;;;;12.08;60.26;100912.03;5060745;28;20057;-60
2022/11/11 00:13:30;;;;;;;6.45;2.40;;;;;;;12.07;60.37;100920.06;5051376;28;20067;-61
2022/11/11 00:16:03;;;;;;;7.78;2.30;;;;;;;12.03;60.79;100924.56;5049967;28;20228;-61
2022/11/11 00:26:38;;;;;;;7.57;2.70;;;;;;;11.99;60.24;100933.53;5052020;28;20041;-60
2022/11/11 00:29:06;;;;;;;11.00;3.45;;;;;;;11.97;60.37;100938.03;5064882;28;20040;-60
2022/11/11 00:31:34;;;;;;;7.88;2.95;;;;;;;11.95;60.49;100945.16;5070857;28;20040;-61
2022/11/11 00:34:01;;;;;;;7.18;2.72;;;;;;;11.95;60.38;100942.50;5048879;28;20041;-61
2022/11/11 00:36:27;;;;;;;8.40;2.45;;;;;;;11.93;60.56;100949.66;5060008;28;20448;-60
2022/11/11 00:38:54;;;;;;;7.20;2.70;;;;;;;11.93;60.41;100957.56;5050861;28;20053;-60
2022/11/11 00:41:23;;;;;;;7.15;2.38;;;;;;;11.92;60.45;100963.78;5061304;28;20048;-60
2022/11/11 00:43:49;;;;;;;3.67;2.08;;;;;;;11.91;60.46;100972.59;5073481;28;20126;-60
2022/11/11 00:51:46;;;;;;;7.07;2.28;;;;;;;11.88;60.54;100970.09;5070560;28;20071;-60
2022/11/11 00:54:13;;;;;;;7.05;2.88;;;;;;;11.86;60.48;100973.66;5070932;28;20045;-60
2022/11/11 00:56:39;;;;;;;6.35;2.85;;;;;;;11.86;60.46;100980.72;5065881;28;20512;-60
2022/11/11 00:59:07;;;;;;;6.68;2.47;;;;;;;11.85;60.70;100984.28;5074632;28;20127;-60
2022/11/11 01:01:36;;;;;;;10.23;3.00;;;;;;;11.83;60.70;100981.72;5074511;28;20048;-58
2022/11/11 01:04:03;;;;;;;7.72;2.42;;;;;;;11.83;60.82;100976.44;5056522;28;20455;-60
2022/11/11 01:06:30;;;;;;;7.88;2.47;;;;;;;11.84;60.83;100979.91;5074211;28;20048;-59
2022/11/11 01:08:57;;;;;;;7.60;2.85;;;;;;;11.84;60.63;100977.28;5074280;28;20094;-60
2022/11/11 01:11:23;;;;;;;9.23;2.55;;;;;;;11.83;60.88;100981.72;5074593;28;20123;-59
2022/11/11 01:13:50;;;;;;;7.57;2.75;;;;;;;11.81;60.79;100980.91;5074241;28;20063;-61
2022/11/11 01:16:23;;;;;;;7.90;2.30;;;;;;;11.80;60.96;100981.84;5056497;28;20107;-61
2022/11/11 01:18:50;;;;;;;7.85;3.35;;;;;;;11.81;60.70;100983.53;5074003;28;20088;-61
2022/11/11 01:21:20;;;;;;;4.80;2.50;;;;;;;11.79;60.94;100985.41;5074372;28;20045;-61
2022/11/11 01:23:49;;;;;;;5.20;2.33;;;;;;;11.79;60.94;100985.41;5074191;28;20059;-60
2022/11/11 01:26:27;;;;;;;5.50;2.33;;;;;;;11.76;61.30;100984.66;5074014;28;20458;-60
2022/11/11 01:28:57;;;;;;;4.80;2.40;;;;;;;11.78;60.77;100983.66;5073887;28;20132;-60
2022/11/11 01:31:26;;;;;;;7.97;2.45;;;;;;;11.76;61.02;100972.34;5056337;28;20052;-60
2022/11/11 01:33:53;;;;;;;4.30;2.70;;;;;;;11.75;60.97;100969.75;5074098;28;20450;-59
2022/11/11 01:36:25;;;;;;;10.10;2.78;;;;;;;11.72;61.34;100970.75;5074106;28;20052;-61
2022/11/11 01:38:54;;;;;;;5.65;2.70;;;;;;;11.72;61.11;100965.47;5073857;28;20135;-60
2022/11/11 01:41:32;;;;;;;5.68;2.80;;;;;;;11.72;61.08;100965.47;5073650;28;20412;-60
2022/11/11 01:44:12;;;;;;;8.10;2.78;;;;;;;11.72;60.97;100970.75;5074048;28;20055;-60
2022/11/11 01:46:45;;;;;;;6.68;2.42;;;;;;;11.69;61.37;100958.56;5073751;28;20066;-60
2022/11/11 01:49:49;;;;;;;6.32;2.58;;;;;;;11.65;61.81;100962.22;5073787;28;20044;-59
2022/11/11 01:52:26;;;;;;;5.13;2.70;;;;;;;11.65;61.62;100978.06;5058621;28;20052;-60
2022/11/11 01:54:58;;;;;;;7.93;3.35;;;;;;;11.65;61.42;100993.00;5073568;28;20056;-60
2022/11/11 01:57:31;;;;;;;5.43;2.65;;;;;;;11.63;61.55;100979.91;5073613;28;20140;-61
2022/11/11 02:00:03;;;;;;;5.90;2.85;;;;;;;11.61;61.43;100989.66;5073481;28;20480;-59
2022/11/11 02:02:39;;;;;;;7.28;2.60;;;;;;;11.59;61.90;100992.34;5073769;28;20135;-60
2022/11/11 02:07:57;;;;;;;7.35;2.63;;;;;;;11.59;61.43;100980.97;5073518;28;20432;-60
2022/11/11 02:10:25;;;;;;;13.75;2.50;;;;;;;11.59;61.42;100984.44;5073259;28;20040;-60
2022/11/11 02:15:37;;;;;;;6.63;2.22;;;;;;;11.59;61.19;100983.59;5073304;28;20045;-60
2022/11/11 02:18:04;;;;;;;8.05;2.45;;;;;;;11.57;61.36;100981.03;5073178;28;20052;-61
2022/11/11 02:20:37;;;;;;;7.53;2.33;;;;;;;11.55;61.55;100982.00;5073122;28;20139;-60
2022/11/11 02:23:10;;;;;;;;;;;;;;;11.54;61.58;100962.69;5073324;28;20416;-61
2022/11/11 02:25:41;;;;;;;5.27;2.40;;;;;;;11.57;61.10;100967.84;5073178;28;19924;-60
2022/11/11 02:28:09;;;;;;;6.38;2.47;;;;;;;11.55;61.03;100956.47;5073041;28;20389;-60
2022/11/11 02:30:35;;;;;;;7.45;2.38;;;;;;;11.52;61.27;100953.13;5073104;28;20053;-59
2022/11/11 02:33:02;;;;;;;7.72;2.97;;;;;;;11.47;61.39;100951.53;5072729;28;20045;-61
2022/11/11 02:35:57;;;;;;;6.03;2.30;;;;;;;11.42;62.41;100957.91;5072736;28;20052;-60
2022/11/11 02:38:24;;;;;;;7.25;2.47;;;;;;;11.44;61.50;100943.75;5070239;28;20080;-60
2022/11/11 02:43:36;;;;;;;4.15;2.47;;;;;;;11.41;61.52;100953.56;5072940;28;20452;-60
2022/11/11 02:46:05;;;;;;;8.07;3.03;;;;;;;11.39;61.91;100945.72;5072412;28;20080;-60
2022/11/11 02:48:33;;;;;;;9.10;2.85;;;;;;;11.39;61.58;100947.50;5072529;28;20066;-60
2022/11/11 02:50:59;;;;;;;4.53;2.67;;;;;;;11.37;62.10;100931.75;5072769;28;20108;-61
2022/11/11 02:53:26;;;;;;;5.63;3.00;;;;;;;11.37;61.77;100934.41;5072485;28;20049;-61
2022/11/11 02:55:53;;;;;;;9.88;2.88;;;;;;;11.36;61.90;100934.47;5072206;28;20062;-60
2022/11/11 02:58:22;;;;;;;4.55;2.45;;;;;;;11.33;61.95;100927.53;5072245;28;20480;-61
2022/11/11 03:00:48;;;;;;;6.30;2.58;;;;;;;11.33;61.94;100928.38;5072173;28;20479;-61
2022/11/11 03:03:15;;;;;;;6.45;2.78;;;;;;;11.31;61.97;100934.63;5072174;28;20543;-61
2022/11/11 03:05:42;;;;;;;7.50;2.80;;;;;;;11.30;62.31;100935.56;5072111;28;20075;-61
2022/11/11 03:08:09;;;;;;;7.05;3.08;;;;;;;11.29;62.10;100923.31;5072026;28;20103;-60
2022/11/11 03:10:35;;;;;;;6.60;2.70;;;;;;;11.26;62.18;100934.84;5072143;28;20110;-60
2022/11/11 03:13:02;;;;;;;6.13;2.97;;;;;;;11.25;62.22;100933.09;5072072;28;20055;-61
2022/11/11 03:15:29;;;;;;;8.40;3.15;;;;;;;11.25;62.26;100934.91;5071825;28;20051;-60
2022/11/11 03:17:55;;;;;;;6.72;3.00;;;;;;;11.22;62.27;100941.16;5071440;28;20093;-60
2022/11/11 03:23:13;;;;;;;9.68;2.85;;;;;;;11.20;63.03;100940.34;5072121;28;20140;-60
2022/11/11 03:25:42;;;;;;;8.27;3.13;;;;;;;11.19;62.85;100934.22;5071643;28;20060;-61
2022/11/11 03:28:15;;;;;;;7.28;3.20;;;;;;;11.17;63.32;100932.56;5071812;28;20045;-61
2022/11/11 03:30:44;;;;;;;6.28;3.17;;;;;;;11.16;63.01;100929.06;5071699;28;20068;-60
2022/11/11 03:33:12;;;;;;;9.40;3.03;;;;;;;11.17;62.64;100930.78;5071513;28;20575;-60
2022/11/11 03:35:39;;;;;;;7.40;3.15;;;;;;;11.16;62.65;100928.22;5053352;28;20083;-61
2022/11/11 03:38:22;;;;;;;8.90;3.33;;;;;;;11.14;62.85;100933.53;5068280;28;20076;-61
2022/11/11 03:40:52;;;;;;;9.10;3.72;;;;;;;11.12;63.19;100931.88;5092016;28;20074;-61
2022/11/11 03:43:21;;;;;;;8.38;3.70;;;;;;;11.10;63.03;100929.31;5091966;28;20048;-60
2022/11/11 03:45:48;;;;;;;6.35;3.70;;;;;;;11.11;62.87;100930.19;5082302;28;20055;-61
2022/11/11 03:48:15;;;;;;;5.60;3.30;;;;;;;11.10;63.14;100939.00;5071007;28;20518;-60
2022/11/11 03:50:42;;;;;;;8.15;3.50;;;;;;;11.08;63.21;100936.44;5064557;28;20436;-61
2022/11/11 03:53:08;;;;;;;7.65;3.10;;;;;;;11.07;63.32;100940.00;5077492;28;20047;-60
2022/11/11 03:55:35;;;;;;;7.68;3.30;;;;;;;11.06;63.33;100941.75;5063035;28;20382;-59
2022/11/11 03:58:01;;;;;;;7.00;3.13;;;;;;;11.05;63.40;100940.06;5071236;28;20060;-60
2022/11/11 04:00:28;;;;;;;7.30;3.67;;;;;;;11.04;63.64;100961.19;5071280;28;20045;-60
2022/11/11 04:11:42;;;;;;;7.30;3.08;;;;;;;11.00;64.51;100954.31;5071277;28;20484;-61
2022/11/11 04:16:56;;;;;;;8.55;3.15;;;;;;;11.00;63.21;100963.09;5071053;28;20405;-60
2022/11/11 04:22:07;;;;;;;6.45;3.50;;;;;;;10.99;63.31;100964.00;5071150;28;20060;-60
2022/11/11 04:27:20;;;;;;;8.30;3.25;;;;;;;10.97;63.40;100965.84;5071221;28;20040;-60
2022/11/11 04:29:48;;;;;;;6.32;3.55;;;;;;;10.94;63.36;100964.19;5073596;28;20048;-60
2022/11/11 04:32:37;;;;;;;7.15;3.53;;;;;;;10.92;63.81;100973.06;5057442;28;20055;-60
2022/11/11 04:35:07;;;;;;;8.10;3.55;;;;;;;10.92;63.74;100973.91;5074911;28;20532;-61
2022/11/11 04:37:36;;;;;;;5.35;2.92;;;;;;;10.90;63.96;100970.50;5074854;28;20045;-60
2022/11/11 04:42:48;;;;;;;7.75;3.80;;;;;;;10.89;63.69;100974.06;5074014;28;20056;-61
2022/11/11 04:45:26;;;;;;;10.43;3.83;;;;;;;10.87;63.67;100980.31;5074835;28;20058;-60
2022/11/11 04:48:00;;;;;;;6.22;3.72;;;;;;;10.85;64.41;100975.09;5056797;28;20083;-60
2022/11/11 04:50:48;;;;;;;8.05;3.70;;;;;;;10.84;63.81;100969.88;5068979;28;20076;-60
2022/11/11 04:53:15;;;;;;;6.78;3.20;;;;;;;10.82;63.71;100970.81;5068949;28;20524;-61
2022/11/11 04:58:32;;;;;;;7.22;3.20;;;;;;;10.80;64.16;100971.75;5066384;28;20052;-61
2022/11/11 05:00:59;;;;;;;7.70;3.75;;;;;;;10.79;64.02;100983.22;5036842;28;20064;-60
2022/11/11 05:03:26;;;;;;;6.95;3.72;;;;;;;10.78;63.81;100989.41;5054490;28;20045;-61
2022/11/11 05:09:00;;;;;;;9.93;4.00;;;;;;;10.74;64.52;101014.13;5054537;28;20044;-61
2022/11/11 05:11:28;;;;;;;8.93;3.58;;;;;;;10.76;63.90;101018.41;5054460;28;20052;-60
2022/11/11 05:22:22;;;;;;;11.80;3.92;;;;;;;10.74;64.31;101043.97;5054200;28;20060;-62
2022/11/11 05:27:34;;;;;;;10.07;4.10;;;;;;;10.77;63.76;101054.38;5054180;28;20080;-60
2022/11/11 05:30:02;;;;;;;6.32;3.83;;;;;;;10.78;64.09;101052.59;5053951;28;20049;-60
2022/11/11 05:32:29;;;;;;;6.80;3.70;;;;;;;10.79;63.92;101044.66;5117378;23;20551;-61
2022/11/11 05:34:55;;;;;;;8.30;4.43;;;;;;;10.80;64.07;101042.84;5053361;28;20135;-61
2022/11/11 05:37:22;;;;;;;8.85;4.18;;;;;;;10.81;64.01;101039.34;5053669;28;20059;-61
2022/11/11 05:39:49;;;;;;;11.10;4.40;;;;;;;10.82;64.05;101031.38;5053810;28;20053;-61
2022/11/11 05:42:15;;;;;;;7.97;4.32;;;;;;;10.82;63.97;101028.75;5035368;28;20060;-61
2022/11/11 05:44:42;;;;;;;5.00;3.78;;;;;;;10.83;63.90;101021.69;5053839;28;20041;-61
2022/11/11 05:47:09;;;;;;;8.73;4.43;;;;;;;10.84;64.05;101027.81;5053509;28;20049;-61
2022/11/11 05:49:35;;;;;;;9.50;4.60;;;;;;;10.80;64.06;101022.66;5053448;28;20132;-61
2022/11/11 05:52:04;;;;;;;6.38;4.10;;;;;;;10.79;63.96;101026.22;5053504;28;20048;-62
2022/11/11 05:54:30;;;;;;;10.32;4.50;;;;;;;10.78;64.08;101026.28;5053694;28;20144;-60
2022/11/11 05:56:57;;;;;;;11.77;4.32;;;;;;;10.76;63.85;101025.47;5053460;28;20045;-62
2022/11/11 05:59:24;;;;;;;6.90;4.15;;;;;;;10.74;63.98;101036.06;5053414;28;20524;-61
2022/11/11 06:01:50;;;;;;;10.48;4.78;;;;;;;10.71;64.00;101037.94;5053457;28;20053;-61
2022/11/11 06:04:17;;;;;;;9.63;4.25;;;;;;;10.70;64.08;101037.09;5053539;28;20053;-61
2022/11/11 06:06:44;;;;;;;9.00;4.72;;;;;;;10.68;64.05;101031.00;5053021;28;20053;-61
2022/11/11 06:09:11;;;;;;;9.70;4.63;;;;;;;10.66;64.18;101031.06;5053320;28;20044;-61
2022/11/11 06:11:37;;;;;;;7.97;4.60;;;;;;;10.65;64.16;101031.16;5053499;28;20053;-61
2022/11/11 06:14:04;;;;;;;7.97;4.70;;;;;;;10.63;64.38;101032.97;5053148;28;20049;-60
2022/11/11 06:16:31;;;;;;;11.73;4.93;;;;;;;10.61;64.27;101034.81;5053127;28;20387;-60
2022/11/11 06:18:58;;;;;;;8.60;4.07;;;;;;;10.59;64.34;101047.16;5053233;28;20172;-61
2022/11/11 06:21:26;;;;;;;7.82;4.40;;;;;;;10.58;64.50;101048.06;5053026;28;20520;-60
2022/11/11 06:23:52;;;;;;;7.57;4.30;;;;;;;10.55;64.48;101044.63;5050067;28;20092;-62
2022/11/11 06:26:19;;;;;;;7.28;4.10;;;;;;;10.57;64.50;101046.38;5052359;28;20472;-62
2022/11/11 06:28:46;;;;;;;9.68;4.18;;;;;;;10.55;64.39;101043.78;5044831;28;20390;-61
2022/11/11 06:31:23;;;;;;;7.43;3.85;;;;;;;10.51;65.48;101053.53;5052383;28;20047;-61
2022/11/11 06:33:50;;;;;;;9.27;4.30;;;;;;;10.53;64.54;101054.38;5044603;28;20132;-60
2022/11/11 06:36:19;;;;;;;5.65;3.75;;;;;;;10.51;64.66;101048.28;5052427;28;20463;-61
2022/11/11 06:38:46;;;;;;;8.52;4.20;;;;;;;10.52;64.68;101050.03;5045135;28;20053;-61
2022/11/11 06:41:14;;;;;;;6.30;3.80;;;;;;;10.51;64.72;101052.72;5044198;28;20044;-60
2022/11/11 06:43:42;;;;;;;7.68;4.22;;;;;;;10.49;64.61;101047.50;5052767;28;20052;-61
2022/11/11 06:46:19;;;;;;;9.20;4.63;;;;;;;10.47;65.37;101056.38;5049993;28;20482;-61
2022/11/11 06:48:46;;;;;;;7.72;3.78;;;;;;;10.49;64.83;101052.75;5042011;28;20450;-60
2022/11/11 06:51:13;;;;;;;8.43;4.15;;;;;;;10.49;64.91;101063.28;5052286;28;20136;-60
2022/11/11 06:53:46;;;;;;;11.55;4.25;;;;;;;10.46;65.62;101049.38;5042094;28;20055;-63
2022/11/11 06:56:13;;;;;;;7.13;4.03;;;;;;;10.49;64.97;101062.41;5042788;28;20047;-60
2022/11/11 06:58:39;;;;;;;10.27;4.30;;;;;;;10.48;64.89;101058.06;5049799;28;20071;-60
2022/11/11 07:01:08;;;;;;;5.95;3.97;;;;;;;10.48;65.14;101069.47;5052020;28;20557;-61
2022/11/11 07:03:35;;;;;;;7.70;3.85;;;;;;;10.49;65.09;101060.66;5043811;28;20508;-61
2022/11/11 07:06:04;;;;;;;8.27;4.03;;;;;;;10.49;65.34;101070.31;5048346;28;20064;-60
2022/11/11 07:08:31;;;;;;;9.27;3.88;;;;;;;10.49;65.20;101073.81;5040174;28;20037;-61
2022/11/11 07:10:58;;;;;;;7.00;4.18;;;;;;;10.50;65.03;101083.44;5033563;28;20525;-60
2022/11/11 07:13:30;;;;;;;9.00;3.90;;;;;;;10.52;65.14;101084.25;5034984;28;20037;-61
2022/11/11 07:15:57;;;;;;;10.27;4.03;;;;;;;10.53;65.35;101085.97;5043678;28;20139;-61
2022/11/11 07:18:23;;;;;;;5.80;3.58;;;;;;;10.54;65.03;101087.66;5051901;28;20106;-61
2022/11/11 07:20:50;;;;;;;9.52;3.42;;;;;;;10.57;65.14;101094.59;5051993;28;20057;-61
2022/11/11 07:23:17;;;;;;;6.35;3.72;;;;;;;10.57;65.07;101097.22;5051698;28;20131;-61
2022/11/11 07:25:44;;;;;;;9.15;4.13;;;;;;;10.59;65.00;101091.91;5048805;28;20053;-61
2022/11/11 07:28:10;;;;;;;11.07;4.22;;;;;;;10.60;64.98;101088.34;5051466;28;20048;-61
2022/11/11 07:30:37;;;;;;;6.60;4.05;;;;;;;10.63;65.03;101090.91;5043303;28;20037;-61
2022/11/11 07:33:03;;;;;;;5.43;3.40;;;;;;;10.62;65.05;101092.66;5049844;28;20448;-61
2022/11/11 07:35:30;;;;;;;8.15;3.28;;;;;;;10.64;65.15;101084.72;5049641;28;20044;-61
2022/11/11 07:37:57;;;;;;;10.63;4.00;;;;;;;10.66;65.07;101091.63;5039985;28;20053;-61
2022/11/11 07:40:23;;;;;;;7.13;3.85;;;;;;;10.66;65.06;101094.25;5047056;28;20123;-61
2022/11/11 07:42:50;;;;;;;9.48;3.72;;;;;;;10.68;65.06;101092.47;5051860;28;20060;-61
2022/11/11 07:45:16;;;;;;;10.13;4.13;;;;;;;10.69;65.01;101093.28;5046122;28;20140;-62
2022/11/11 07:47:44;;;;;;;8.80;4.45;;;;;;;10.70;65.03;101095.03;5041308;28;20056;-61
2022/11/11 07:50:11;;;;;;;11.55;4.03;;;;;;;10.72;64.92;101095.81;5045996;28;20132;-61
2022/11/11 07:52:39;;;;;;;6.28;3.83;;;;;;;10.72;64.93;101095.81;5031743;28;20068;-61
2022/11/11 07:55:07;;;;;;;6.15;3.92;;;;;;;10.74;65.20;101098.41;5031593;28;20046;-61
2022/11/11 07:57:34;;;;;;;8.65;4.13;;;;;;;10.75;65.01;101094.84;5031255;28;20516;-61
2022/11/11 08:00:01;;;;;;;11.38;4.95;;;;;;;10.76;65.14;101097.44;5031333;28;20061;-61
2022/11/11 08:02:28;;;;;;;9.75;4.07;;;;;;;10.78;65.02;101106.16;5031460;28;20111;-60
2022/11/11 08:04:54;;;;;;;7.68;4.88;;;;;;;10.80;64.97;101103.44;5030820;28;20045;-61
2022/11/11 08:07:22;;;;;;;9.57;4.60;;;;;;;10.81;65.06;101105.19;5031347;28;20057;-62
2022/11/11 08:09:50;;;;;;;7.60;4.35;;;;;;;10.84;65.04;101112.94;5031085;28;20046;-61
2022/11/11 08:15:04;;;;;;;15.27;5.30;;;;;;;10.85;64.86;101114.69;5031206;28;20046;-61
2022/11/11 08:17:37;;;;;;;8.20;4.20;;;;;;;10.87;65.09;101109.38;5030955;28;20049;-62
2022/11/11 08:20:06;;;;;;;13.13;4.70;;;;;;;10.90;64.91;101109.25;5031207;28;20152;-61
2022/11/11 08:22:37;;;;;;;9.70;5.05;;;;;;;10.90;64.91;101096.94;5031596;28;20056;-61
2022/11/11 08:25:09;;;;;;;10.10;4.55;;;;;;;10.93;64.90;101095.97;5031211;28;20317;-61
2022/11/11 08:27:36;;;;;;;10.45;4.70;;;;;;;10.97;64.75;101108.13;5031041;28;20553;-62
2022/11/11 08:30:05;;;;;;;9.05;4.85;;;;;;;10.99;64.76;101101.00;5031020;28;20052;-61
2022/11/11 08:32:31;;;;;;;9.80;4.72;;;;;;;11.03;64.62;101104.41;5031269;28;20067;-61
2022/11/11 08:34:58;;;;;;;9.32;4.65;;;;;;;11.04;64.55;101091.16;5031088;28;20141;-61
2022/11/11 08:37:25;;;;;;;10.10;4.20;;;;;;;11.08;64.56;101095.41;5031078;28;20053;-62
2022/11/11 08:39:51;;;;;;;11.05;4.82;;;;;;;11.12;64.35;101096.13;5031078;28;20137;-61
2022/11/11 08:42:18;;;;;;;6.28;4.20;;;;;;;11.16;64.41;101102.16;5031000;28;20053;-61
2022/11/11 08:44:45;;;;;;;9.40;4.25;;;;;;;11.18;64.30;101106.44;5030601;28;20141;-61
2022/11/11 08:47:12;;;;;;;9.68;4.35;;;;;;;11.22;64.13;101096.66;5030994;28;20052;-61
2022/11/11 08:49:39;;;;;;;8.80;4.20;;;;;;;11.24;64.11;101105.34;5030798;28;20054;-61
2022/11/11 08:52:05;;;;;;;6.70;4.05;;;;;;;11.27;64.12;101117.56;5030931;28;20046;-61
2022/11/11 08:54:32;;;;;;;7.78;4.22;;;;;;;11.29;64.00;101113.94;5030833;28;20497;-61
2022/11/11 08:56:59;;;;;;;10.68;4.03;;;;;;;11.32;64.01;101124.38;5030581;28;20136;-62
2022/11/11 08:59:25;;;;;;;7.80;4.80;;;;;;;11.37;63.76;101123.34;5030847;28;20046;-62
2022/11/11 09:01:52;;;;;;;6.95;4.03;;;;;;;11.39;63.73;101125.00;5031078;28;20054;-61
2022/11/11 09:04:18;;;;;;;8.02;3.83;;;;;;;11.42;63.78;101119.63;5030840;28;20063;-60
2022/11/11 09:07:07;;;;;;;9.60;3.85;;;;;;;11.47;63.67;101124.69;5030836;28;20065;-61
2022/11/11 09:09:34;;;;;;;8.75;4.20;;;;;;;11.52;63.49;101125.41;5030750;28;20085;-61
2022/11/11 09:12:01;;;;;;;7.25;3.78;;;;;;;11.56;63.40;101123.50;5030968;28;20144;-62
2022/11/11 09:14:27;;;;;;;6.93;3.92;;;;;;;11.59;63.51;101132.13;5030864;28;20056;-61
2022/11/11 09:16:54;;;;;;;7.22;3.22;;;;;;;11.63;63.43;101134.66;4959033;23;20152;-61
2022/11/11 09:19:21;;;;;;;7.90;3.65;;;;;;;11.67;63.30;101128.34;5054356;28;20049;-61
2022/11/11 09:21:50;;;;;;;7.90;4.32;;;;;;;11.69;62.99;101142.31;5054158;28;20041;-61
2022/11/11 09:24:17;;;;;;;8.50;3.80;;;;;;;11.73;63.04;101136.88;5053952;28;20040;-61
2022/11/11 09:26:45;;;;;;;7.43;3.47;;;;;;;11.76;63.07;101143.78;5073801;28;20045;-61
2022/11/11 09:29:12;;;;;;;8.18;3.72;;;;;;;11.81;63.03;101139.19;5074081;28;20131;-61
2022/11/11 09:31:39;;;;;;;7.32;3.60;;;;;;;11.85;63.10;101137.31;5074021;28;20060;-60
2022/11/11 09:34:12;;;;;;;6.97;3.63;;;;;;;11.91;63.03;101147.59;5074099;28;20053;-61
2022/11/11 09:36:39;;;;;;;9.77;3.80;;;;;;;11.95;62.92;101145.69;5073526;28;20143;-60
2022/11/11 09:39:05;;;;;;;10.70;4.15;;;;;;;12.01;62.94;101148.09;5074036;28;20185;-61
2022/11/11 09:42:10;;;;;;;8.40;4.30;;;;;;;12.00;62.29;101151.63;5073813;28;20161;-61
2022/11/11 09:44:59;;;;;;;6.70;3.25;;;;;;;12.10;62.33;101147.75;5073719;28;20076;-60
2022/11/11 09:47:40;;;;;;;8.15;3.63;;;;;;;12.15;62.39;101152.81;5073665;28;20057;-61
2022/11/11 09:50:15;;;;;;;9.52;3.80;;;;;;;12.23;62.26;101155.16;5073562;28;20512;-61
2022/11/11 09:53:00;;;;;;;6.13;2.95;;;;;;;12.29;62.57;101152.25;5073721;28;20056;-60
2022/11/11 09:55:32;;;;;;;10.73;3.30;;;;;;;12.33;61.97;101153.84;5073737;28;20048;-60
2022/11/11 09:58:13;;;;;;;11.02;3.65;;;;;;;12.38;62.02;101151.88;5073662;28;20047;-61
2022/11/11 10:00:42;;;;;;;8.75;4.03;;;;;;;12.47;62.24;101163.84;5055984;28;20153;-60
2022/11/11 10:03:09;;;;;;;5.78;3.20;;;;;;;12.53;62.12;101159.22;5073785;28;20641;-61
2022/11/11 10:05:44;;;;;;;5.82;3.17;;;;;;;12.58;62.11;101166.03;5073437;28;20139;-61
2022/11/11 10:08:17;;;;;;;10.00;3.65;;;;;;;12.65;61.92;101169.25;5073478;28;20044;-60
2022/11/11 10:10:51;;;;;;;4.93;3.20;;;;;;;12.71;62.00;101171.63;5073491;28;20044;-61
2022/11/11 10:13:27;;;;;;;6.72;3.00;;;;;;;12.76;61.58;101168.78;5073310;28;20139;-62
2022/11/11 10:15:57;;;;;;;9.68;4.10;;;;;;;12.83;61.19;101170.25;5072968;28;20140;-61
2022/11/11 10:19:01;;;;;;;6.15;3.72;;;;;;;12.87;61.16;101174.44;5055495;28;20146;-61
2022/11/11 10:21:50;;;;;;;5.68;3.25;;;;;;;12.96;61.39;101167.03;5073385;28;20049;-62
2022/11/11 10:24:41;;;;;;;8.55;3.30;;;;;;;13.08;61.60;101166.50;5072993;28;20503;-61
2022/11/11 10:27:18;;;;;;;7.68;3.08;;;;;;;13.16;61.06;101168.81;5072708;28;20044;-61
2022/11/11 10:29:45;;;;;;;7.20;3.03;;;;;;;13.25;61.34;101172.81;5072980;28;20048;-62
2022/11/11 10:32:16;;;;;;;5.85;3.40;;;;;;;13.32;61.02;101183.97;5072874;28;20115;-61
2022/11/11 10:34:43;;;;;;;7.05;3.40;;;;;;;13.40;61.08;101180.06;5073010;28;20059;-61
2022/11/11 10:37:20;;;;;;;6.88;3.00;;;;;;;13.47;60.26;101178.00;5072598;28;20055;-61
2022/11/11 10:40:11;;;;;;;4.93;2.75;;;;;;;13.55;60.41;101180.31;5072934;28;20053;-61
2022/11/11 10:42:37;;;;;;;6.05;2.78;;;;;;;13.68;61.05;101175.28;5072691;28;20139;-61
2022/11/11 10:45:26;;;;;;;4.90;2.72;;;;;;;13.76;60.41;101172.28;5072470;28;20049;-63
2022/11/11 10:48:01;;;;;;;8.93;2.72;;;;;;;13.87;60.26;101183.19;5072664;28;20052;-61
2022/11/11 10:50:29;;;;;;;5.50;2.80;;;;;;;13.99;60.71;101180.91;5072611;28;20063;-61
2022/11/11 10:53:00;;;;;;;7.40;2.72;;;;;;;14.07;60.50;101184.91;5072459;28;20048;-61
2022/11/11 10:55:30;;;;;;;5.70;2.60;;;;;;;14.18;59.96;101194.09;5072548;28;20045;-61
2022/11/11 10:58:16;;;;;;;6.13;2.72;;;;;;;14.25;58.64;101184.06;5072101;28;20045;-61
2022/11/11 11:00:45;;;;;;;6.70;2.88;;;;;;;14.40;59.72;101188.59;5072420;28;20045;-61
2022/11/11 11:03:21;;;;;;;5.72;2.53;;;;;;;14.52;59.40;101188.91;5072470;28;20052;-62
2022/11/11 11:06:15;;;;;;;6.22;2.47;;;;;;;14.65;58.69;101186.50;5072158;28;20151;-60
2022/11/11 11:08:43;;;;;;;;;;;;;;;14.82;59.03;101188.31;5062612;28;20147;-61
2022/11/11 11:11:25;;;;;;;6.38;2.63;;;;;;;15.02;59.35;101181.94;5072073;28;19920;-61
2022/11/11 11:13:57;;;;;;;5.88;2.67;;;;;;;15.23;58.89;101190.56;5072114;28;20564;-60
2022/11/11 11:16:31;;;;;;;8.10;2.53;;;;;;;15.43;59.08;101191.28;5071798;28;20572;-60
2022/11/11 11:19:16;;;;;;;;;;;;;;;15.62;58.06;101190.25;5072618;28;20055;-61
2022/11/11 11:21:50;;;;;;;6.82;2.38;;;;;;;15.90;58.04;101184.25;5072047;28;19921;-61
2022/11/11 11:24:23;;;;;;;6.78;2.50;;;;;;;16.12;57.55;101192.84;5071901;28;20859;-62
2022/11/11 11:26:52;;;;;;;7.95;2.58;;;;;;;16.36;58.13;101190.56;5071384;28;20487;-62
2022/11/11 11:29:32;;;;;;;5.47;2.50;;;;;;;16.61;56.67;101190.91;5071943;28;20136;-61
2022/11/11 11:32:20;;;;;;;4.43;2.22;;;;;;;16.90;55.83;101190.97;5128495;23;20132;-58
2022/11/11 11:34:54;;;;;;;7.93;2.80;;;;;;;17.16;53.93;101181.41;5011365;28;20057;-58
2022/11/11 11:37:24;;;;;;;4.65;2.30;;;;;;;17.42;55.82;101186.06;5011909;28;20049;-58
2022/11/11 11:40:06;;;;;;;3.70;2.38;;;;;;;17.62;54.14;101183.91;5011345;28;20141;-59
2022/11/11 11:42:35;;;;;;;5.55;2.40;;;;;;;17.86;54.91;101183.31;5012165;28;20050;-59
2022/11/11 11:45:15;;;;;;;6.30;2.40;;;;;;;18.02;51.19;101181.31;5011919;28;20054;-58
2022/11/11 11:47:47;;;;;;;6.45;2.50;;;;;;;18.25;52.67;101180.78;5011878;28;20056;-60
2022/11/11 11:51:08;;;;;;;4.72;2.25;;;;;;;18.51;52.82;101183.50;5011961;28;20042;-59
2022/11/11 11:53:41;;;;;;;6.13;2.38;;;;;;;18.78;52.77;101179.91;4994485;28;20050;-60
2022/11/11 11:56:19;;;;;;;4.80;2.38;;;;;;;18.98;48.35;101178.50;4994242;28;20136;-59
2022/11/11 11:58:55;;;;;;;5.03;2.50;;;;;;;19.22;52.22;101183.13;5011936;28;20103;-58
2022/11/11 12:01:34;;;;;;;7.78;2.40;;;;;;;19.34;49.76;101178.72;5011938;28;20053;-58
2022/11/11 12:04:25;;;;;;;4.03;2.22;;;;;;;19.45;49.71;101175.28;5011751;28;20056;-58
2022/11/11 12:07:20;;;;;;;5.43;2.28;;;;;;;19.57;50.68;101171.72;5011321;28;20050;-59
2022/11/11 12:10:02;;;;;;;5.85;2.50;;;;;;;19.71;48.92;101161.84;4984752;28;20052;-58
2022/11/11 12:12:41;;;;;;;4.15;2.00;;;;;;;19.86;49.57;101165.22;5011650;28;20407;-58
2022/11/11 12:15:28;;;;;;;6.25;2.08;;;;;;;20.01;49.31;101163.25;5011408;28;20058;-58
2022/11/11 12:18:28;;;;;;;3.30;2.15;;;;;;;20.20;49.47;101165.41;5011682;28;20046;-58
2022/11/11 12:21:07;;;;;;;5.40;2.25;;;;;;;20.43;48.09;101157.44;5011775;28;20059;-58
2022/11/11 12:24:07;;;;;;;7.80;1.98;;;;;;;20.54;47.12;101165.50;5011307;28;20049;-58
2022/11/11 12:26:38;;;;;;;4.75;1.95;;;;;;;20.60;46.70;101157.97;5011152;28;20046;-59
2022/11/11 12:29:22;;;;;;;5.72;2.05;;;;;;;20.48;45.39;101165.13;5011513;28;20049;-60
2022/11/11 12:32:19;;;;;;;4.45;1.98;;;;;;;20.29;45.13;101167.38;5011218;28;20486;-58
2022/11/11 12:35:04;;;;;;;6.47;2.40;;;;;;;20.07;45.90;101151.25;5011571;28;20053;-58
2022/11/11 12:37:49;;;;;;;5.30;2.03;;;;;;;19.73;46.24;101158.09;5011298;28;20596;-60
2022/11/11 12:40:52;;;;;;;8.05;2.75;;;;;;;19.44;46.19;101160.22;5011308;28;20514;-60
2022/11/11 12:43:29;;;;;;;4.70;1.95;;;;;;;19.16;46.26;101156.84;5011628;28;20081;-60
2022/11/11 12:46:13;;;;;;;3.83;1.77;;;;;;;18.96;47.69;101153.78;5011110;28;20046;-59
2022/11/11 12:49:05;;;;;;;5.45;1.70;;;;;;;18.72;47.72;101159.84;5011458;28;20416;-60